Record high temperature 37.7°C Record low temperature -23.5°C Record high gust 79.6 km/h Record high average 153.6 km/h Record daily rain 47.2 mm Record low windchill -31.0°C Record high barometer 1039.8 hPa Record low barometer 980.3 hPa
Daily high pressure 1011.6 hPa Daily low pressure 1005.5 hPa Daily low windchill 0.3°C Daily high heat index 7.9°C Daily high gust speed 27.8 kmh S Daily high average speed 19.1 kmh SW
Wetterdaten
LETZTE AKTUALISIERUNG UM: 15:15 DATUM: November 18 2019, time of next update: 15:30
Aktuelles Wetterpartly cloudy Aktuelle Temperatur 7.1°C (44.7°F), Apparent temp 4.5°C, Apparent temp solar 6.7°C
Höchsttemperatur (seit Mitternacht)7.9°C um: 13:00 Tiefsttemperatur (seit Mitternacht)2.2°C um: 07:36
Windgeschwindigkeit (10 Minuten )7.8 kmh (4.2 kts) Windrichtung (Dir) (10 Minuten )W (268°)
Windchill Temperatur 4.3°C Windspitzen (letzte Std)22.0 kmh (11.9 kts) um: 14:18
Windspitzen (seit Mitternacht)27.8 kmh (15.0 kts) um: 10:56 Höchstes Windmittel / Minute (seit Mitternacht)19.1 kmh (10.3 kts) um: 12:29
Regenmenge (letzte Std)0.0 mm Regenmenge (seit Mitternacht)0.2 mm (0.01 in.) at 03:43
Regenmenge diesen Monat 30.4 mm (1.20 in.) Regenmenge seit Jahresbeginn 648.6 mm (25.54 in.)
Höchste Regenmenge pro Minute (letzte Std)0.0 mm/min Höchste Regenmenge pro Stunde (letzte 6 Std)0.0 mm/stunde
Regenmenge Gestern 1.0 mm Taupunkt 1.7°C (Wet Bulb :4.9°C )
Luftfeuchtigkeit 69 %, Humidex 5.4°C Aktueller Luftdruck (auf Meereshöhe bezogen)1011.6 hPa
Luftdrucktendenz +0.6 hPa (letzte Std) Trend (letzte 1 Std)leicht steigend
Luftdrucktendenz (letzte 12 Std)+5.6 hPa Luftdrucktendenz (letzte 6 Std)+2.6 hPa
Maximum Soil temperature (seit Mitternacht) 6.7°C Minimum Soil temperature(seit Mitternacht)6.1°C
Current Soil temperature 7°C
Current Solar 128 W/m²
Maximum solar (seit Mitternacht) 559 W/m² Minimum solar(seit Mitternacht)0 W/m²
Current 05:34 hours of sunshine today, current sky: bewölkt
Sunshine hours for the year: 1677:57 hrs Sunshine hours for the month: 33:47 hrs
Current evapotranspiration rate 0.8 mm per day. Yesterday's reading 0.1

Diese Seite wurde mit aktuellen Daten einer DAVIS VP Wetterstation erstellt. Drücken Sie bitte auf "Aktualisieren" oder "neu laden" um die neuesten Daten zu erhalten.


Animated web cam image


Weather report/warning/Metars

Stuttgart-Echterdingen, Germany (EDDS) 48-41N 009-13E 391M
Nov 18, 2019 - 08:50 AM EST / 2019.11.18 1350 UTC
Wind: from the SW (230 degrees) at 12 MPH (10 KT) gusting to 23 MPH (20 KT) (direction variable):0
Visibility: greater than 7 mile(s):0
Sky conditions: partly cloudy
Temperature: 42 F (6 C)
Dew Point: 32 F (0 C)
Relative Humidity: 65%
Pressure (altimeter): 29.80 in. Hg (1009 hPa)
ob: EDDS 181350Z 23010G20KT 190V290 9999 SCT029 06/00 Q1009 NOSIG
cycle: 14
Augsburg, Germany (EDMA) 48-26N 010-56E 463M
Nov 18, 2019 - 08:50 AM EST / 2019.11.18 1350 UTC
Wind: from the WSW (240 degrees) at 14 MPH (12 KT):0
Visibility: greater than 7 mile(s):0
Sky conditions: mostly clear
Temperature: 46 F (8 C)
Dew Point: 32 F (0 C)
Relative Humidity: 56%
Pressure (altimeter): 29.83 in. Hg (1010 hPa)
ob: EDMA 181350Z 24012KT 9999 FEW038 08/00 Q1010
cycle: 14
Nuernberg, Germany (EDDN) 49-30N 011-03E 318M
Nov 18, 2019 - 08:50 AM EST / 2019.11.18 1350 UTC
Wind: from the SW (220 degrees) at 12 MPH (10 KT) (direction variable):0
Visibility: greater than 7 mile(s):0
Sky conditions: mostly cloudy
Temperature: 44 F (7 C)
Dew Point: 32 F (0 C)
Relative Humidity: 60%
Pressure (altimeter): 29.80 in. Hg (1009 hPa)
ob: EDDN 181350Z 22010KT 180V240 9999 BKN031 07/M00 Q1009 NOSIG
cycle: 14
Berlin-Tegel, Germany (EDDT) 52-34N 013-19E 37M
Nov 18, 2019 - 08:50 AM EST / 2019.11.18 1350 UTC
Wind: from the SW (220 degrees) at 12 MPH (10 KT):0
Visibility: 5 mile(s):0
Sky conditions: overcast
Weather: light rain
Temperature: 46 F (8 C)
Dew Point: 44 F (7 C)
Relative Humidity: 93%
Pressure (altimeter): 29.71 in. Hg (1006 hPa)
ob: EDDT 181350Z 22010KT 9000 -RA FEW005 BKN007 OVC013 08/07 Q1006 BECMG BKN012
cycle: 14
Friedrichshafen, Germany (EDNY) 47-40N 009-31E 424M
Nov 18, 2019 - 08:50 AM EST / 2019.11.18 1350 UTC
Wind: from the WSW (250 degrees) at 14 MPH (12 KT):0
Visibility: greater than 7 mile(s):0
Sky conditions: partly cloudy
Temperature: 44 F (7 C)
Dew Point: 33 F (1 C)
Relative Humidity: 65%
Pressure (altimeter): 29.85 in. Hg (1011 hPa)
ob: EDNY 181350Z 25012KT 9999 SCT028 07/01 Q1011
cycle: 14
Hamburg-Finkenwerder, Germany (EDHI) 53-32N 009-50E 13M
Nov 18, 2019 - 08:50 AM EST / 2019.11.18 1350 UTC
Wind: from the SSW (200 degrees) at 7 MPH (6 KT):0
Visibility: 2 mile(s):0
Sky conditions: overcast
Weather: mist
Temperature: 44 F (7 C)
Dew Point: 42 F (6 C)
Relative Humidity: 93%
Pressure (altimeter): 29.65 in. Hg (1004 hPa)
ob: EDHI 181350Z 20006KT 4800 BR OVC005 07/06 Q1004
cycle: 14
Amsterdam Airport Schiphol, Netherlands (EHAM) 52-18N 004-46E -2M
Nov 18, 2019 - 08:55 AM EST / 2019.11.18 1355 UTC
Wind: from the NW (320 degrees) at 5 MPH (4 KT) (direction variable):0
Visibility: 3 mile(s):0
Sky conditions: mostly cloudy
Weather: light drizzle, rain
Temperature: 46 F (8 C)
Dew Point: 44 F (7 C)
Relative Humidity: 93%
Pressure (altimeter): 29.77 in. Hg (1008 hPa)
ob: EHAM 181355Z 32004KT 280V020 6000 -DZRA FEW007 BKN010 BKN018 08/07 Q1008 TEMPO 4000 BECMG 34015KT 9999 NSW SCT020 BKN030
cycle: 14
Stockholm/Skavsta, Sweden (ESKN) 58-47N 016-55E
Nov 18, 2019 - 08:50 AM EST / 2019.11.18 1350 UTC
Wind: from the E (100 degrees) at 17 MPH (15 KT):0
Visibility: 1 mile(s):0
Sky conditions: mostly cloudy
Weather: mist; light drizzle
Temperature: 46 F (8 C)
Dew Point: 46 F (8 C)
Relative Humidity: 100%
Pressure (altimeter): 29.94 in. Hg (1014 hPa)
ob: ESKN 181350Z 10015KT 2200 BR -DZ BKN003 08/08 Q1014 R26/290195
cycle: 14
Ramstein, Germany (ETAR) 49-26N 007-36E 237M
Nov 18, 2019 - 08:57 AM EST / 2019.11.18 1357 UTC
Wind: from the SW (220 degrees) at 7 MPH (6 KT):0
Visibility: greater than 7 mile(s):0
Sky conditions: overcast
Weather: light rain
Temperature: 37 F (3 C)
Dew Point: 37 F (3 C)
Relative Humidity: 100%
Pressure (altimeter): 29.79 in. Hg (1008 hPa)
ob: ETAR 181357Z 22006KT 9999 -RA OVC008 03/03 A2979 RMK AO2A RAB57 SLP101 
cycle: 14
Laupheim, Germany (ETHL) 48-13N 009-55E 550M
Nov 18, 2019 - 08:20 AM EST / 2019.11.18 1320 UTC
Wind: from the WSW (240 degrees) at 15 MPH (13 KT) gusting to 26 MPH (23 KT):0
Visibility: greater than 7 mile(s):0
Sky conditions: partly cloudy
Temperature: 42 F (6 C)
Dew Point: 32 F (0 C)
Relative Humidity: 65%
Pressure (altimeter): 29.83 in. Hg (1010 hPa)
ob: ETHL 181320Z 24013G23KT 9999 SCT023 06/M00 Q1010 BLU+BLU TEMPO BLU+
cycle: 13
Gran Canaria - Canary Islands, Spain (GCLP) 27-56N 015-23W 47M
Nov 18, 2019 - 09:00 AM EST / 2019.11.18 1400 UTC
Wind: from the NE (040 degrees) at 16 MPH (14 KT):0
Visibility: greater than 7 mile(s):0
Sky conditions: mostly clear
Temperature: 71 F (22 C)
Dew Point: 55 F (13 C)
Relative Humidity: 56%
Pressure (altimeter): 30.15 in. Hg (1021 hPa)
ob: GCLP 181400Z 04014KT 9999 FEW030 22/13 Q1021 NOSIG
cycle: 14
Hurguada, Egypt (HEGN) 27-09N 033-43E 14M
Nov 18, 2019 - 08:00 AM EST / 2019.11.18 1300 UTC
Wind: from the ENE (060 degrees) at 6 MPH (5 KT):0
Visibility: greater than 7 mile(s):0
Sky conditions: partly cloudy
Temperature: 84 F (29 C)
Dew Point: 51 F (11 C)
Relative Humidity: 32%
Pressure (altimeter): 29.91 in. Hg (1013 hPa)
ob: HEGN 181300Z 06005KT 9999 SCT020 29/11 Q1013 NOSIG
cycle: 13
Chicago / Meigs, IL, United States (KCGX) 41-52N 087-36W
Jun 18, 2008 - 01:45 PM EDT / 2008.06.18 1745 UTC
Wind: from the NW (310 degrees) at 6 MPH (5 KT):0
Visibility: 15 mile(s):0
Sky conditions: overcast
Temperature: 57 F (14 C)
Dew Point: 51 F (11 C)
Relative Humidity: 82%
Pressure (altimeter): 29.89 in. Hg (1012 hPa)
ob: KCGX 181745Z 31005KT 15SM BKN014 OVC030 14/11 A2989
cycle: 18
Paris-Aeroport Charles De Gaulle, France (LFPG) 49-01N 002-32E 109M
Nov 18, 2019 - 09:00 AM EST / 2019.11.18 1400 UTC
Wind: from the NW (310 degrees) at 10 MPH (9 KT):0
Visibility: greater than 7 mile(s):0
Sky conditions: mostly cloudy
Weather: light rain, drizzle
Temperature: 46 F (8 C)
Dew Point: 42 F (6 C)
Relative Humidity: 87%
Pressure (altimeter): 29.88 in. Hg (1012 hPa)
ob: LFPG 181400Z 31009KT 9999 -RADZ SCT015 SCT040 BKN063 08/06 Q1012 NOSIG
cycle: 14
Hyeres, France (LFTH) 43-06N 006-09E 4M
Nov 18, 2019 - 09:00 AM EST / 2019.11.18 1400 UTC
Wind: from the NNW (330 degrees) at 8 MPH (7 KT):0
Visibility: greater than 7 mile(s):0
Sky conditions: overcast
Weather: rain; Cumulonimbus clouds observed
Temperature: 46 F (8 C)
Dew Point: 42 F (6 C)
Relative Humidity: 87%
Pressure (altimeter): 29.83 in. Hg (1010 hPa)
ob: LFTH 181400Z AUTO 33007KT 9999 RA BKN041/// OVC047/// ///CB 08/06 Q1010 BECMG NSW NSC
cycle: 14



Die Wetterdaten werden alle 2 Minuten gespeichert, aber die Datenübertragung findet jede Minute statt. Die beste Ansicht wird in einer Auflösung von 800 x 600 und "True colour" erzielt. Linie zeigt die relative Luftfeuchtigkeit an.

Drücken Sie bitte auf "Aktualisieren" in Ihrem Browser, um die aktuellsten Daten zu erhalten.

Klicken Sie hier, um eine Übersicht der Durchschnitts- u. Extremwerte für den Monat zu erhalten
Created by "Weather Display" software version 10.37S at this start time/date 14:48:36 14.11.2019